sensor_id;sensor_type;location;lat;lon;timestamp;P1;durP1;ratioP1;P2;durP2;ratioP2
65037;SDS011;51605;47.040;15.294;2023-02-08T00:01:14;4.40;;;2.80;;
65037;SDS011;51605;47.040;15.294;2023-02-08T00:03:41;5.57;;;3.28;;
65037;SDS011;51605;47.040;15.294;2023-02-08T00:06:08;5.17;;;3.47;;
65037;SDS011;51605;47.040;15.294;2023-02-08T00:08:34;4.87;;;3.43;;
65037;SDS011;51605;47.040;15.294;2023-02-08T00:11:01;4.90;;;3.60;;
65037;SDS011;51605;47.040;15.294;2023-02-08T00:13:27;5.80;;;3.63;;
65037;SDS011;51605;47.040;15.294;2023-02-08T00:15:53;4.90;;;3.13;;
65037;SDS011;51605;47.040;15.294;2023-02-08T00:18:19;5.33;;;3.27;;
65037;SDS011;51605;47.040;15.294;2023-02-08T00:20:46;4.60;;;3.10;;
65037;SDS011;51605;47.040;15.294;2023-02-08T00:23:14;4.38;;;3.20;;
65037;SDS011;51605;47.040;15.294;2023-02-08T00:25:41;4.63;;;3.53;;
65037;SDS011;51605;47.040;15.294;2023-02-08T00:28:07;5.17;;;3.57;;
65037;SDS011;51605;47.040;15.294;2023-02-08T00:30:36;4.47;;;3.25;;
65037;SDS011;51605;47.040;15.294;2023-02-08T00:33:02;4.95;;;3.47;;
65037;SDS011;51605;47.040;15.294;2023-02-08T00:35:28;4.93;;;3.60;;
65037;SDS011;51605;47.040;15.294;2023-02-08T00:37:54;5.43;;;3.42;;
65037;SDS011;51605;47.040;15.294;2023-02-08T00:40:20;6.00;;;3.67;;
65037;SDS011;51605;47.040;15.294;2023-02-08T00:42:46;4.95;;;4.03;;
65037;SDS011;51605;47.040;15.294;2023-02-08T00:45:12;6.28;;;3.30;;
65037;SDS011;51605;47.040;15.294;2023-02-08T00:47:38;5.25;;;4.30;;
65037;SDS011;51605;47.040;15.294;2023-02-08T00:50:03;5.20;;;3.60;;
65037;SDS011;51605;47.040;15.294;2023-02-08T00:52:30;5.20;;;3.30;;
65037;SDS011;51605;47.040;15.294;2023-02-08T00:54:55;4.38;;;3.40;;
65037;SDS011;51605;47.040;15.294;2023-02-08T00:57:21;4.57;;;3.10;;
65037;SDS011;51605;47.040;15.294;2023-02-08T00:59:47;4.70;;;3.50;;
65037;SDS011;51605;47.040;15.294;2023-02-08T01:02:12;4.97;;;3.65;;
65037;SDS011;51605;47.040;15.294;2023-02-08T01:04:38;5.70;;;3.40;;
65037;SDS011;51605;47.040;15.294;2023-02-08T01:07:04;3.97;;;3.08;;
65037;SDS011;51605;47.040;15.294;2023-02-08T01:09:30;4.72;;;3.17;;
65037;SDS011;51605;47.040;15.294;2023-02-08T01:11:56;4.45;;;3.08;;
65037;SDS011;51605;47.040;15.294;2023-02-08T01:14:22;4.30;;;3.08;;
65037;SDS011;51605;47.040;15.294;2023-02-08T01:16:48;4.55;;;2.90;;
65037;SDS011;51605;47.040;15.294;2023-02-08T01:19:14;5.38;;;3.30;;
65037;SDS011;51605;47.040;15.294;2023-02-08T01:21:40;4.93;;;3.63;;
65037;SDS011;51605;47.040;15.294;2023-02-08T01:24:06;4.63;;;3.17;;
65037;SDS011;51605;47.040;15.294;2023-02-08T01:26:33;5.32;;;3.20;;
65037;SDS011;51605;47.040;15.294;2023-02-08T01:28:59;5.28;;;3.28;;
65037;SDS011;51605;47.040;15.294;2023-02-08T01:31:26;3.92;;;2.80;;
65037;SDS011;51605;47.040;15.294;2023-02-08T01:33:54;4.20;;;3.10;;
65037;SDS011;51605;47.040;15.294;2023-02-08T01:36:21;4.05;;;2.83;;
65037;SDS011;51605;47.040;15.294;2023-02-08T01:38:47;6.25;;;3.15;;
65037;SDS011;51605;47.040;15.294;2023-02-08T01:41:17;4.47;;;3.10;;
65037;SDS011;51605;47.040;15.294;2023-02-08T01:43:58;4.35;;;3.00;;
65037;SDS011;51605;47.040;15.294;2023-02-08T01:46:27;3.97;;;3.15;;
65037;SDS011;51605;47.040;15.294;2023-02-08T01:48:55;4.53;;;3.30;;
65037;SDS011;51605;47.040;15.294;2023-02-08T01:51:24;3.75;;;2.80;;
65037;SDS011;51605;47.040;15.294;2023-02-08T01:53:52;4.35;;;3.03;;
65037;SDS011;51605;47.040;15.294;2023-02-08T01:56:22;6.35;;;5.45;;
65037;SDS011;51605;47.040;15.294;2023-02-08T01:58:56;5.15;;;3.67;;
65037;SDS011;51605;47.040;15.294;2023-02-08T02:01:25;5.05;;;3.28;;
65037;SDS011;51605;47.040;15.294;2023-02-08T02:03:54;4.40;;;3.30;;
65037;SDS011;51605;47.040;15.294;2023-02-08T02:06:23;3.92;;;2.78;;
65037;SDS011;51605;47.040;15.294;2023-02-08T02:08:54;4.28;;;2.88;;
65037;SDS011;51605;47.040;15.294;2023-02-08T02:11:25;4.53;;;3.20;;
65037;SDS011;51605;47.040;15.294;2023-02-08T02:16:18;3.72;;;2.70;;
65037;SDS011;51605;47.040;15.294;2023-02-08T02:18:44;4.00;;;2.72;;
65037;SDS011;51605;47.040;15.294;2023-02-08T02:42:57;3.60;;;2.70;;
65037;SDS011;51605;47.040;15.294;2023-02-08T02:45:48;5.60;;;2.72;;
65037;SDS011;51605;47.040;15.294;2023-02-08T02:49:20;4.75;;;3.03;;
65037;SDS011;51605;47.040;15.294;2023-02-08T02:51:18;5.15;;;2.95;;
65037;SDS011;51605;47.040;15.294;2023-02-08T02:53:51;3.60;;;2.60;;
65037;SDS011;51605;47.040;15.294;2023-02-08T02:56:26;5.40;;;2.70;;
65037;SDS011;51605;47.040;15.294;2023-02-08T02:58:57;3.85;;;2.53;;
65037;SDS011;51605;47.040;15.294;2023-02-08T03:01:28;4.63;;;3.22;;
65037;SDS011;51605;47.040;15.294;2023-02-08T03:03:54;4.05;;;2.80;;
65037;SDS011;51605;47.040;15.294;2023-02-08T03:09:16;3.72;;;2.72;;
65037;SDS011;51605;47.040;15.294;2023-02-08T03:12:13;4.55;;;3.08;;
65037;SDS011;51605;47.040;15.294;2023-02-08T03:17:34;4.63;;;3.22;;
65037;SDS011;51605;47.040;15.294;2023-02-08T03:20:26;4.15;;;3.13;;
65037;SDS011;51605;47.040;15.294;2023-02-08T03:25:33;4.50;;;3.85;;
65037;SDS011;51605;47.040;15.294;2023-02-08T03:28:20;3.65;;;2.45;;
65037;SDS011;51605;47.040;15.294;2023-02-08T03:36:41;3.92;;;2.95;;
65037;SDS011;51605;47.040;15.294;2023-02-08T03:39:16;4.20;;;2.85;;
65037;SDS011;51605;47.040;15.294;2023-02-08T03:41:46;4.65;;;3.00;;
65037;SDS011;51605;47.040;15.294;2023-02-08T03:44:16;3.83;;;2.60;;
65037;SDS011;51605;47.040;15.294;2023-02-08T03:46:47;4.00;;;2.88;;
65037;SDS011;51605;47.040;15.294;2023-02-08T03:49:19;3.75;;;2.50;;
65037;SDS011;51605;47.040;15.294;2023-02-08T03:51:49;4.20;;;2.70;;
65037;SDS011;51605;47.040;15.294;2023-02-08T03:54:21;4.38;;;2.65;;
65037;SDS011;51605;47.040;15.294;2023-02-08T03:57:00;4.57;;;3.03;;
65037;SDS011;51605;47.040;15.294;2023-02-08T03:59:36;4.05;;;3.00;;
65037;SDS011;51605;47.040;15.294;2023-02-08T04:02:05;3.95;;;3.20;;
65037;SDS011;51605;47.040;15.294;2023-02-08T04:04:36;3.83;;;3.28;;
65037;SDS011;51605;47.040;15.294;2023-02-08T04:07:04;4.28;;;2.70;;
65037;SDS011;51605;47.040;15.294;2023-02-08T04:09:30;4.68;;;3.38;;
65037;SDS011;51605;47.040;15.294;2023-02-08T04:11:56;4.13;;;3.05;;
65037;SDS011;51605;47.040;15.294;2023-02-08T04:14:21;4.97;;;2.70;;
65037;SDS011;51605;47.040;15.294;2023-02-08T04:16:47;4.28;;;2.60;;
65037;SDS011;51605;47.040;15.294;2023-02-08T04:19:13;3.70;;;2.75;;
65037;SDS011;51605;47.040;15.294;2023-02-08T04:21:38;3.72;;;2.80;;
65037;SDS011;51605;47.040;15.294;2023-02-08T04:24:04;3.65;;;2.60;;
65037;SDS011;51605;47.040;15.294;2023-02-08T04:26:30;4.90;;;2.70;;
65037;SDS011;51605;47.040;15.294;2023-02-08T04:28:55;4.53;;;2.90;;
65037;SDS011;51605;47.040;15.294;2023-02-08T04:31:21;3.97;;;2.70;;
65037;SDS011;51605;47.040;15.294;2023-02-08T04:33:47;4.30;;;2.90;;
65037;SDS011;51605;47.040;15.294;2023-02-08T04:36:12;3.65;;;2.90;;
65037;SDS011;51605;47.040;15.294;2023-02-08T04:38:38;4.32;;;3.25;;
65037;SDS011;51605;47.040;15.294;2023-02-08T04:41:03;4.28;;;3.05;;
65037;SDS011;51605;47.040;15.294;2023-02-08T04:43:29;3.67;;;2.65;;
65037;SDS011;51605;47.040;15.294;2023-02-08T04:45:55;4.35;;;2.83;;
65037;SDS011;51605;47.040;15.294;2023-02-08T04:48:20;3.65;;;2.63;;
65037;SDS011;51605;47.040;15.294;2023-02-08T04:50:46;4.20;;;2.67;;
65037;SDS011;51605;47.040;15.294;2023-02-08T04:53:12;3.70;;;2.38;;
65037;SDS011;51605;47.040;15.294;2023-02-08T04:55:37;3.47;;;2.63;;
65037;SDS011;51605;47.040;15.294;2023-02-08T04:58:03;4.22;;;3.10;;
65037;SDS011;51605;47.040;15.294;2023-02-08T05:00:29;3.28;;;2.47;;
65037;SDS011;51605;47.040;15.294;2023-02-08T05:02:55;3.53;;;2.60;;
65037;SDS011;51605;47.040;15.294;2023-02-08T05:05:23;4.05;;;2.50;;
65037;SDS011;51605;47.040;15.294;2023-02-08T05:10:15;5.32;;;3.80;;
65037;SDS011;51605;47.040;15.294;2023-02-08T05:12:41;4.57;;;3.05;;
65037;SDS011;51605;47.040;15.294;2023-02-08T05:15:07;3.40;;;2.50;;
65037;SDS011;51605;47.040;15.294;2023-02-08T05:17:32;3.15;;;2.33;;
65037;SDS011;51605;47.040;15.294;2023-02-08T05:19:58;3.40;;;2.63;;
65037;SDS011;51605;47.040;15.294;2023-02-08T05:22:24;3.75;;;3.10;;
65037;SDS011;51605;47.040;15.294;2023-02-08T05:24:50;3.70;;;3.10;;
65037;SDS011;51605;47.040;15.294;2023-02-08T05:27:16;3.63;;;2.90;;
65037;SDS011;51605;47.040;15.294;2023-02-08T05:29:41;3.15;;;2.65;;
65037;SDS011;51605;47.040;15.294;2023-02-08T05:32:08;3.78;;;3.03;;
65037;SDS011;51605;47.040;15.294;2023-02-08T05:34:33;6.65;;;4.68;;
65037;SDS011;51605;47.040;15.294;2023-02-08T05:37:00;3.97;;;3.47;;
65037;SDS011;51605;47.040;15.294;2023-02-08T05:39:26;3.42;;;2.95;;
65037;SDS011;51605;47.040;15.294;2023-02-08T05:41:52;3.80;;;3.00;;
65037;SDS011;51605;47.040;15.294;2023-02-08T05:44:17;3.95;;;2.78;;
65037;SDS011;51605;47.040;15.294;2023-02-08T05:46:43;3.85;;;2.40;;
65037;SDS011;51605;47.040;15.294;2023-02-08T05:49:09;3.88;;;2.88;;
65037;SDS011;51605;47.040;15.294;2023-02-08T05:51:34;3.70;;;2.47;;
65037;SDS011;51605;47.040;15.294;2023-02-08T05:54:00;3.38;;;2.53;;
65037;SDS011;51605;47.040;15.294;2023-02-08T05:56:26;4.80;;;2.83;;
65037;SDS011;51605;47.040;15.294;2023-02-08T05:58:52;3.00;;;2.38;;
65037;SDS011;51605;47.040;15.294;2023-02-08T06:01:18;4.25;;;2.55;;
65037;SDS011;51605;47.040;15.294;2023-02-08T06:03:45;3.22;;;2.78;;
65037;SDS011;51605;47.040;15.294;2023-02-08T06:06:11;3.45;;;2.78;;
65037;SDS011;51605;47.040;15.294;2023-02-08T06:08:37;3.20;;;2.33;;
65037;SDS011;51605;47.040;15.294;2023-02-08T06:11:04;4.13;;;2.58;;
65037;SDS011;51605;47.040;15.294;2023-02-08T06:13:30;3.30;;;2.60;;
65037;SDS011;51605;47.040;15.294;2023-02-08T06:15:56;3.83;;;2.47;;
65037;SDS011;51605;47.040;15.294;2023-02-08T06:18:21;3.92;;;2.40;;
65037;SDS011;51605;47.040;15.294;2023-02-08T06:20:47;4.13;;;2.30;;
65037;SDS011;51605;47.040;15.294;2023-02-08T06:23:16;3.63;;;2.40;;
65037;SDS011;51605;47.040;15.294;2023-02-08T06:25:41;3.13;;;2.25;;
65037;SDS011;51605;47.040;15.294;2023-02-08T06:28:07;3.45;;;2.42;;
65037;SDS011;51605;47.040;15.294;2023-02-08T06:30:35;3.35;;;2.53;;
65037;SDS011;51605;47.040;15.294;2023-02-08T06:33:01;3.17;;;2.42;;
65037;SDS011;51605;47.040;15.294;2023-02-08T06:35:26;3.75;;;2.78;;
65037;SDS011;51605;47.040;15.294;2023-02-08T06:37:52;4.82;;;2.60;;
65037;SDS011;51605;47.040;15.294;2023-02-08T06:40:18;3.50;;;2.45;;
65037;SDS011;51605;47.040;15.294;2023-02-08T06:42:45;3.13;;;2.42;;
65037;SDS011;51605;47.040;15.294;2023-02-08T06:45:11;4.55;;;2.45;;
65037;SDS011;51605;47.040;15.294;2023-02-08T06:47:37;3.85;;;2.40;;
65037;SDS011;51605;47.040;15.294;2023-02-08T06:50:03;3.47;;;2.45;;
65037;SDS011;51605;47.040;15.294;2023-02-08T06:52:29;3.50;;;2.33;;
65037;SDS011;51605;47.040;15.294;2023-02-08T06:54:55;4.85;;;2.35;;
65037;SDS011;51605;47.040;15.294;2023-02-08T06:57:20;3.30;;;2.38;;
65037;SDS011;51605;47.040;15.294;2023-02-08T06:59:46;3.30;;;2.40;;
65037;SDS011;51605;47.040;15.294;2023-02-08T07:02:12;4.18;;;2.70;;
65037;SDS011;51605;47.040;15.294;2023-02-08T07:04:39;4.03;;;2.67;;
65037;SDS011;51605;47.040;15.294;2023-02-08T07:07:05;4.18;;;2.78;;
65037;SDS011;51605;47.040;15.294;2023-02-08T07:09:34;4.13;;;3.53;;
65037;SDS011;51605;47.040;15.294;2023-02-08T07:12:01;4.45;;;2.28;;
65037;SDS011;51605;47.040;15.294;2023-02-08T07:14:29;3.70;;;2.90;;
65037;SDS011;51605;47.040;15.294;2023-02-08T07:16:56;3.55;;;2.50;;
65037;SDS011;51605;47.040;15.294;2023-02-08T07:19:22;3.55;;;2.38;;
65037;SDS011;51605;47.040;15.294;2023-02-08T07:21:48;4.07;;;2.60;;
65037;SDS011;51605;47.040;15.294;2023-02-08T07:24:13;4.55;;;2.72;;
65037;SDS011;51605;47.040;15.294;2023-02-08T07:26:39;5.50;;;3.00;;
65037;SDS011;51605;47.040;15.294;2023-02-08T07:29:04;3.60;;;2.72;;
65037;SDS011;51605;47.040;15.294;2023-02-08T07:31:30;3.83;;;2.67;;
65037;SDS011;51605;47.040;15.294;2023-02-08T07:33:57;4.22;;;2.45;;
65037;SDS011;51605;47.040;15.294;2023-02-08T07:38:48;4.68;;;2.90;;
65037;SDS011;51605;47.040;15.294;2023-02-08T07:41:14;3.97;;;3.00;;
65037;SDS011;51605;47.040;15.294;2023-02-08T07:43:40;4.60;;;4.13;;
65037;SDS011;51605;47.040;15.294;2023-02-08T07:46:07;4.80;;;3.35;;
65037;SDS011;51605;47.040;15.294;2023-02-08T07:48:37;4.88;;;3.55;;
65037;SDS011;51605;47.040;15.294;2023-02-08T07:51:03;4.90;;;3.30;;
65037;SDS011;51605;47.040;15.294;2023-02-08T07:53:29;4.93;;;3.60;;
65037;SDS011;51605;47.040;15.294;2023-02-08T07:55:55;3.85;;;2.80;;
65037;SDS011;51605;47.040;15.294;2023-02-08T07:58:21;4.63;;;3.65;;
65037;SDS011;51605;47.040;15.294;2023-02-08T08:00:47;5.80;;;3.72;;
65037;SDS011;51605;47.040;15.294;2023-02-08T08:03:13;5.00;;;3.78;;
65037;SDS011;51605;47.040;15.294;2023-02-08T08:05:39;5.40;;;3.40;;
65037;SDS011;51605;47.040;15.294;2023-02-08T08:08:06;4.55;;;3.40;;
65037;SDS011;51605;47.040;15.294;2023-02-08T08:10:32;4.20;;;2.90;;
65037;SDS011;51605;47.040;15.294;2023-02-08T08:12:58;3.83;;;2.42;;
65037;SDS011;51605;47.040;15.294;2023-02-08T08:15:24;4.13;;;2.30;;
65037;SDS011;51605;47.040;15.294;2023-02-08T08:17:49;3.20;;;2.33;;
65037;SDS011;51605;47.040;15.294;2023-02-08T08:20:15;4.65;;;2.90;;
65037;SDS011;51605;47.040;15.294;2023-02-08T08:22:41;4.28;;;3.20;;
65037;SDS011;51605;47.040;15.294;2023-02-08T08:25:07;4.03;;;3.05;;
65037;SDS011;51605;47.040;15.294;2023-02-08T08:27:33;4.90;;;2.80;;
65037;SDS011;51605;47.040;15.294;2023-02-08T08:29:59;3.85;;;2.70;;
65037;SDS011;51605;47.040;15.294;2023-02-08T08:32:26;4.07;;;2.85;;
65037;SDS011;51605;47.040;15.294;2023-02-08T08:34:52;3.90;;;2.97;;
65037;SDS011;51605;47.040;15.294;2023-02-08T08:37:17;4.35;;;3.03;;
65037;SDS011;51605;47.040;15.294;2023-02-08T08:39:43;3.28;;;2.33;;
65037;SDS011;51605;47.040;15.294;2023-02-08T08:42:09;4.25;;;2.70;;
65037;SDS011;51605;47.040;15.294;2023-02-08T08:44:34;3.67;;;2.83;;
65037;SDS011;51605;47.040;15.294;2023-02-08T08:47:00;4.25;;;3.22;;
65037;SDS011;51605;47.040;15.294;2023-02-08T08:49:26;4.75;;;3.38;;
65037;SDS011;51605;47.040;15.294;2023-02-08T08:51:53;5.45;;;3.03;;
65037;SDS011;51605;47.040;15.294;2023-02-08T08:54:19;4.25;;;2.67;;
65037;SDS011;51605;47.040;15.294;2023-02-08T08:56:45;3.60;;;2.42;;
65037;SDS011;51605;47.040;15.294;2023-02-08T08:59:12;4.75;;;3.80;;
65037;SDS011;51605;47.040;15.294;2023-02-08T09:01:38;3.90;;;2.60;;
65037;SDS011;51605;47.040;15.294;2023-02-08T09:04:06;4.82;;;2.30;;
65037;SDS011;51605;47.040;15.294;2023-02-08T09:06:32;4.20;;;2.50;;
65037;SDS011;51605;47.040;15.294;2023-02-08T09:08:58;5.32;;;2.72;;
65037;SDS011;51605;47.040;15.294;2023-02-08T09:11:24;4.43;;;2.67;;
65037;SDS011;51605;47.040;15.294;2023-02-08T09:13:50;3.47;;;2.60;;
65037;SDS011;51605;47.040;15.294;2023-02-08T09:16:17;3.97;;;2.58;;
65037;SDS011;51605;47.040;15.294;2023-02-08T09:18:44;3.20;;;2.50;;
65037;SDS011;51605;47.040;15.294;2023-02-08T09:21:11;4.28;;;2.70;;
65037;SDS011;51605;47.040;15.294;2023-02-08T09:23:38;4.65;;;2.75;;
65037;SDS011;51605;47.040;15.294;2023-02-08T09:26:05;3.65;;;2.40;;
65037;SDS011;51605;47.040;15.294;2023-02-08T09:28:32;4.28;;;2.72;;
65037;SDS011;51605;47.040;15.294;2023-02-08T09:30:58;4.70;;;2.50;;
65037;SDS011;51605;47.040;15.294;2023-02-08T09:33:25;4.25;;;2.90;;
65037;SDS011;51605;47.040;15.294;2023-02-08T09:35:52;5.07;;;2.63;;
65037;SDS011;51605;47.040;15.294;2023-02-08T09:38:17;3.67;;;2.42;;
65037;SDS011;51605;47.040;15.294;2023-02-08T09:46:11;3.90;;;3.00;;
65037;SDS011;51605;47.040;15.294;2023-02-08T09:48:41;3.75;;;2.55;;
65037;SDS011;51605;47.040;15.294;2023-02-08T09:51:11;4.60;;;3.08;;
65037;SDS011;51605;47.040;15.294;2023-02-08T09:53:56;3.67;;;2.60;;
65037;SDS011;51605;47.040;15.294;2023-02-08T09:56:35;3.90;;;2.88;;
65037;SDS011;51605;47.040;15.294;2023-02-08T09:59:07;3.88;;;2.47;;
65037;SDS011;51605;47.040;15.294;2023-02-08T10:01:40;3.50;;;2.38;;
65037;SDS011;51605;47.040;15.294;2023-02-08T10:07:09;5.15;;;2.70;;
65037;SDS011;51605;47.040;15.294;2023-02-08T10:09:35;3.72;;;2.60;;
65037;SDS011;51605;47.040;15.294;2023-02-08T10:12:13;5.40;;;2.90;;
65037;SDS011;51605;47.040;15.294;2023-02-08T10:17:36;7.00;;;4.22;;
65037;SDS011;51605;47.040;15.294;2023-02-08T10:31:12;6.25;;;5.00;;
65037;SDS011;51605;47.040;15.294;2023-02-08T10:34:00;4.97;;;3.15;;
65037;SDS011;51605;47.040;15.294;2023-02-08T10:36:39;4.63;;;2.50;;
65037;SDS011;51605;47.040;15.294;2023-02-08T10:39:12;4.97;;;3.65;;
65037;SDS011;51605;47.040;15.294;2023-02-08T10:41:43;3.72;;;2.30;;
65037;SDS011;51605;47.040;15.294;2023-02-08T10:49:46;3.65;;;2.38;;
65037;SDS011;51605;47.040;15.294;2023-02-08T10:52:48;3.17;;;2.58;;
65037;SDS011;51605;47.040;15.294;2023-02-08T10:55:17;3.35;;;2.70;;
65037;SDS011;51605;47.040;15.294;2023-02-08T10:57:45;3.22;;;2.40;;
65037;SDS011;51605;47.040;15.294;2023-02-08T11:02:39;3.80;;;2.42;;
65037;SDS011;51605;47.040;15.294;2023-02-08T11:05:19;2.75;;;2.00;;
65037;SDS011;51605;47.040;15.294;2023-02-08T11:08:06;5.28;;;2.22;;
65037;SDS011;51605;47.040;15.294;2023-02-08T11:10:32;3.95;;;1.92;;
65037;SDS011;51605;47.040;15.294;2023-02-08T11:15:37;3.58;;;2.00;;
65037;SDS011;51605;47.040;15.294;2023-02-08T11:18:28;3.60;;;3.05;;
65037;SDS011;51605;47.040;15.294;2023-02-08T11:20:58;3.92;;;2.20;;
65037;SDS011;51605;47.040;15.294;2023-02-08T11:23:29;4.15;;;3.20;;
65037;SDS011;51605;47.040;15.294;2023-02-08T11:26:17;3.85;;;2.30;;
65037;SDS011;51605;47.040;15.294;2023-02-08T11:28:43;3.13;;;2.30;;
65037;SDS011;51605;47.040;15.294;2023-02-08T11:31:22;3.15;;;2.10;;
65037;SDS011;51605;47.040;15.294;2023-02-08T11:33:56;4.05;;;2.50;;
65037;SDS011;51605;47.040;15.294;2023-02-08T11:36:27;3.20;;;2.17;;
65037;SDS011;51605;47.040;15.294;2023-02-08T11:38:54;4.18;;;3.50;;
65037;SDS011;51605;47.040;15.294;2023-02-08T11:41:20;4.13;;;2.15;;
65037;SDS011;51605;47.040;15.294;2023-02-08T11:44:05;3.30;;;2.30;;
65037;SDS011;51605;47.040;15.294;2023-02-08T11:46:33;3.60;;;2.15;;
65037;SDS011;51605;47.040;15.294;2023-02-08T11:49:00;3.15;;;2.28;;
65037;SDS011;51605;47.040;15.294;2023-02-08T11:53:55;4.23;;;2.13;;
65037;SDS011;51605;47.040;15.294;2023-02-08T11:56:25;3.55;;;2.10;;
65037;SDS011;51605;47.040;15.294;2023-02-08T12:01:36;3.35;;;2.42;;
65037;SDS011;51605;47.040;15.294;2023-02-08T12:04:04;2.78;;;2.00;;
65037;SDS011;51605;47.040;15.294;2023-02-08T12:21:34;2.95;;;2.20;;
65037;SDS011;51605;47.040;15.294;2023-02-08T12:24:09;2.92;;;2.10;;
65037;SDS011;51605;47.040;15.294;2023-02-08T12:26:58;2.90;;;2.00;;
65037;SDS011;51605;47.040;15.294;2023-02-08T12:32:29;3.05;;;2.30;;
65037;SDS011;51605;47.040;15.294;2023-02-08T12:35:09;3.15;;;2.13;;
65037;SDS011;51605;47.040;15.294;2023-02-08T12:37:44;3.00;;;2.10;;
65037;SDS011;51605;47.040;15.294;2023-02-08T12:40:37;3.40;;;3.08;;
65037;SDS011;51605;47.040;15.294;2023-02-08T12:53:49;5.40;;;4.65;;
65037;SDS011;51605;47.040;15.294;2023-02-08T12:56:24;2.80;;;1.88;;
65037;SDS011;51605;47.040;15.294;2023-02-08T12:58:57;2.75;;;2.20;;
65037;SDS011;51605;47.040;15.294;2023-02-08T13:01:27;2.47;;;1.67;;
65037;SDS011;51605;47.040;15.294;2023-02-08T13:04:12;5.35;;;2.97;;
65037;SDS011;51605;47.040;15.294;2023-02-08T13:06:48;3.38;;;2.20;;
65037;SDS011;51605;47.040;15.294;2023-02-08T13:09:34;4.22;;;3.65;;
65037;SDS011;51605;47.040;15.294;2023-02-08T13:12:23;2.50;;;1.83;;
65037;SDS011;51605;47.040;15.294;2023-02-08T13:15:14;5.20;;;2.10;;
65037;SDS011;51605;47.040;15.294;2023-02-08T13:17:48;3.08;;;2.67;;
65037;SDS011;51605;47.040;15.294;2023-02-08T13:25:59;3.20;;;2.67;;
65037;SDS011;51605;47.040;15.294;2023-02-08T13:28:27;3.70;;;2.42;;
65037;SDS011;51605;47.040;15.294;2023-02-08T13:31:00;3.55;;;2.53;;
65037;SDS011;51605;47.040;15.294;2023-02-08T13:33:42;4.57;;;2.35;;
65037;SDS011;51605;47.040;15.294;2023-02-08T13:36:31;3.38;;;2.28;;
65037;SDS011;51605;47.040;15.294;2023-02-08T13:39:02;4.15;;;2.00;;
65037;SDS011;51605;47.040;15.294;2023-02-08T13:41:31;2.88;;;2.00;;
65037;SDS011;51605;47.040;15.294;2023-02-08T13:46:45;3.08;;;1.77;;
65037;SDS011;51605;47.040;15.294;2023-02-08T13:52:03;3.38;;;1.90;;
65037;SDS011;51605;47.040;15.294;2023-02-08T13:54:29;3.40;;;2.05;;
65037;SDS011;51605;47.040;15.294;2023-02-08T13:56:55;2.40;;;1.80;;
65037;SDS011;51605;47.040;15.294;2023-02-08T13:59:25;3.03;;;1.85;;
65037;SDS011;51605;47.040;15.294;2023-02-08T14:07:56;2.65;;;1.85;;
65037;SDS011;51605;47.040;15.294;2023-02-08T14:10:33;2.72;;;1.83;;
65037;SDS011;51605;47.040;15.294;2023-02-08T14:19:05;3.00;;;1.67;;
65037;SDS011;51605;47.040;15.294;2023-02-08T14:21:48;3.85;;;1.83;;
65037;SDS011;51605;47.040;15.294;2023-02-08T14:24:28;3.80;;;2.00;;
65037;SDS011;51605;47.040;15.294;2023-02-08T14:32:36;3.45;;;2.00;;
65037;SDS011;51605;47.040;15.294;2023-02-08T14:35:08;3.35;;;1.98;;
65037;SDS011;51605;47.040;15.294;2023-02-08T14:37:46;4.53;;;1.83;;
65037;SDS011;51605;47.040;15.294;2023-02-08T14:45:29;2.63;;;1.88;;
65037;SDS011;51605;47.040;15.294;2023-02-08T14:48:04;3.60;;;1.80;;
65037;SDS011;51605;47.040;15.294;2023-02-08T14:50:50;2.65;;;1.70;;
65037;SDS011;51605;47.040;15.294;2023-02-08T14:53:46;1.98;;;1.50;;
65037;SDS011;51605;47.040;15.294;2023-02-08T15:09:12;3.03;;;1.80;;
65037;SDS011;51605;47.040;15.294;2023-02-08T15:12:00;2.60;;;1.63;;
65037;SDS011;51605;47.040;15.294;2023-02-08T15:14:40;2.67;;;1.73;;
65037;SDS011;51605;47.040;15.294;2023-02-08T15:17:14;2.72;;;1.75;;
65037;SDS011;51605;47.040;15.294;2023-02-08T15:19:53;2.53;;;1.63;;
65037;SDS011;51605;47.040;15.294;2023-02-08T15:24:55;3.55;;;1.75;;
65037;SDS011;51605;47.040;15.294;2023-02-08T15:27:26;2.85;;;1.98;;
65037;SDS011;51605;47.040;15.294;2023-02-08T15:29:53;2.47;;;1.70;;
65037;SDS011;51605;47.040;15.294;2023-02-08T15:32:20;2.45;;;1.75;;
65037;SDS011;51605;47.040;15.294;2023-02-08T15:35:12;4.53;;;2.05;;
65037;SDS011;51605;47.040;15.294;2023-02-08T15:37:42;2.72;;;1.73;;
65037;SDS011;51605;47.040;15.294;2023-02-08T15:40:20;2.50;;;1.55;;
65037;SDS011;51605;47.040;15.294;2023-02-08T15:42:48;3.30;;;1.88;;
65037;SDS011;51605;47.040;15.294;2023-02-08T15:45:24;2.22;;;1.63;;
65037;SDS011;51605;47.040;15.294;2023-02-08T15:47:54;2.20;;;1.90;;
65037;SDS011;51605;47.040;15.294;2023-02-08T15:50:21;2.50;;;1.80;;
65037;SDS011;51605;47.040;15.294;2023-02-08T15:52:49;3.00;;;1.70;;
65037;SDS011;51605;47.040;15.294;2023-02-08T15:55:20;2.47;;;1.90;;
65037;SDS011;51605;47.040;15.294;2023-02-08T15:57:52;3.63;;;1.70;;
65037;SDS011;51605;47.040;15.294;2023-02-08T16:00:23;2.70;;;1.83;;
65037;SDS011;51605;47.040;15.294;2023-02-08T16:02:53;3.00;;;1.83;;
65037;SDS011;51605;47.040;15.294;2023-02-08T16:05:26;2.47;;;1.80;;
65037;SDS011;51605;47.040;15.294;2023-02-08T16:07:54;2.65;;;1.60;;
65037;SDS011;51605;47.040;15.294;2023-02-08T16:12:52;2.60;;;1.80;;
65037;SDS011;51605;47.040;15.294;2023-02-08T16:15:37;2.45;;;1.90;;
65037;SDS011;51605;47.040;15.294;2023-02-08T16:20:56;3.00;;;2.08;;
65037;SDS011;51605;47.040;15.294;2023-02-08T16:23:26;2.60;;;1.70;;
65037;SDS011;51605;47.040;15.294;2023-02-08T16:25:54;2.10;;;1.70;;
65037;SDS011;51605;47.040;15.294;2023-02-08T16:28:29;2.75;;;1.90;;
65037;SDS011;51605;47.040;15.294;2023-02-08T16:30:59;3.15;;;1.92;;
65037;SDS011;51605;47.040;15.294;2023-02-08T16:33:26;2.17;;;1.90;;
65037;SDS011;51605;47.040;15.294;2023-02-08T16:35:54;2.45;;;1.70;;
65037;SDS011;51605;47.040;15.294;2023-02-08T16:38:26;3.30;;;1.85;;
65037;SDS011;51605;47.040;15.294;2023-02-08T16:40:59;3.70;;;1.90;;
65037;SDS011;51605;47.040;15.294;2023-02-08T16:43:36;2.10;;;1.60;;
65037;SDS011;51605;47.040;15.294;2023-02-08T16:48:42;2.75;;;1.90;;
65037;SDS011;51605;47.040;15.294;2023-02-08T16:51:23;2.97;;;1.73;;
65037;SDS011;51605;47.040;15.294;2023-02-08T16:53:52;2.53;;;1.90;;
65037;SDS011;51605;47.040;15.294;2023-02-08T16:56:20;3.33;;;1.90;;
65037;SDS011;51605;47.040;15.294;2023-02-08T16:58:47;3.22;;;2.28;;
65037;SDS011;51605;47.040;15.294;2023-02-08T17:01:13;2.75;;;1.90;;
65037;SDS011;51605;47.040;15.294;2023-02-08T17:03:39;2.42;;;1.65;;
65037;SDS011;51605;47.040;15.294;2023-02-08T17:06:05;2.58;;;1.80;;
65037;SDS011;51605;47.040;15.294;2023-02-08T17:08:31;2.38;;;1.73;;
65037;SDS011;51605;47.040;15.294;2023-02-08T17:10:59;2.20;;;1.73;;
65037;SDS011;51605;47.040;15.294;2023-02-08T17:13:26;2.73;;;1.80;;
65037;SDS011;51605;47.040;15.294;2023-02-08T17:15:51;2.50;;;1.70;;
65037;SDS011;51605;47.040;15.294;2023-02-08T17:18:18;2.53;;;1.50;;
65037;SDS011;51605;47.040;15.294;2023-02-08T17:20:44;2.65;;;1.95;;
65037;SDS011;51605;47.040;15.294;2023-02-08T17:23:10;2.53;;;1.83;;
65037;SDS011;51605;47.040;15.294;2023-02-08T17:25:38;2.60;;;1.80;;
65037;SDS011;51605;47.040;15.294;2023-02-08T17:28:05;2.85;;;1.70;;
65037;SDS011;51605;47.040;15.294;2023-02-08T17:30:42;2.50;;;1.80;;
65037;SDS011;51605;47.040;15.294;2023-02-08T17:33:11;2.55;;;1.80;;
65037;SDS011;51605;47.040;15.294;2023-02-08T17:35:44;2.75;;;1.73;;